createdAt,value
2022-11-02T00:00:09.701Z,5.97
2022-11-02T00:01:09.660Z,6.00
2022-11-02T00:02:09.822Z,6.03
2022-11-02T00:03:09.836Z,6.03
2022-11-02T00:04:09.655Z,6.01
2022-11-02T00:05:09.672Z,5.99
2022-11-02T00:06:09.558Z,5.98
2022-11-02T00:07:09.554Z,5.97
2022-11-02T00:08:09.559Z,5.95
2022-11-02T00:09:09.551Z,5.95
2022-11-02T00:10:09.533Z,5.96
2022-11-02T00:11:09.583Z,5.99
2022-11-02T00:12:09.531Z,6.04
2022-11-02T00:13:09.481Z,6.13
2022-11-02T00:14:09.482Z,6.22
2022-11-02T00:15:09.538Z,6.33
2022-11-02T00:16:09.511Z,6.43
2022-11-02T00:17:09.601Z,6.50
2022-11-02T00:18:09.601Z,6.54
2022-11-02T00:19:09.629Z,6.54
2022-11-02T00:20:09.667Z,6.53
2022-11-02T00:21:09.680Z,6.52
2022-11-02T00:22:09.360Z,6.53
2022-11-02T00:23:09.343Z,6.52
2022-11-02T00:24:09.336Z,6.51
2022-11-02T00:25:09.374Z,6.49
2022-11-02T00:26:09.341Z,6.46
2022-11-02T00:27:09.309Z,6.42
2022-11-02T00:28:09.305Z,6.36
2022-11-02T00:29:09.326Z,6.28
2022-11-02T00:30:10.114Z,6.25
2022-11-02T00:31:09.412Z,6.26
2022-11-02T00:32:09.375Z,6.26
2022-11-02T00:33:09.423Z,6.31
2022-11-02T00:34:09.250Z,6.38
2022-11-02T00:35:09.208Z,6.41
2022-11-02T00:36:09.432Z,6.42
2022-11-02T00:37:09.274Z,6.43
2022-11-02T00:38:09.282Z,6.45
2022-11-02T00:39:09.146Z,6.45
2022-11-02T00:40:09.207Z,6.43
2022-11-02T00:41:09.262Z,6.40
2022-11-02T00:42:09.159Z,6.36
2022-11-02T00:43:09.147Z,6.29
2022-11-02T00:44:09.129Z,6.21
2022-11-02T00:45:09.179Z,6.14
2022-11-02T00:46:09.126Z,6.08
2022-11-02T00:47:09.031Z,6.05
2022-11-02T00:48:09.101Z,6.04
2022-11-02T00:49:09.013Z,6.03
2022-11-02T00:50:09.037Z,6.04
2022-11-02T00:51:09.000Z,6.04
2022-11-02T00:52:09.010Z,6.01
2022-11-02T00:53:09.025Z,5.96
2022-11-02T00:54:09.044Z,5.93
2022-11-02T00:55:09.028Z,5.95
2022-11-02T00:56:08.934Z,6.02
2022-11-02T00:57:09.105Z,6.08
2022-11-02T00:58:08.933Z,6.16
2022-11-02T00:59:09.007Z,6.25
2022-11-02T01:00:09.056Z,6.31
2022-11-02T01:01:08.968Z,6.32
2022-11-02T01:02:09.035Z,6.30
2022-11-02T01:03:08.881Z,6.27
2022-11-02T01:04:08.904Z,6.27
2022-11-02T01:05:08.809Z,6.28
2022-11-02T01:06:08.956Z,6.24
2022-11-02T01:07:08.880Z,6.20
2022-11-02T01:08:08.922Z,6.15
2022-11-02T01:09:08.782Z,6.14
2022-11-02T01:10:08.798Z,6.17
2022-11-02T01:11:08.733Z,6.19
2022-11-02T01:12:08.721Z,6.20
2022-11-02T01:13:08.715Z,6.19
2022-11-02T01:14:08.710Z,6.15
2022-11-02T01:15:08.814Z,6.11
2022-11-02T01:16:08.685Z,6.06
2022-11-02T01:17:08.667Z,6.03
2022-11-02T01:18:08.708Z,6.01
2022-11-02T01:19:08.712Z,6.04
2022-11-02T01:20:08.726Z,6.10
2022-11-02T01:21:08.686Z,6.15
2022-11-02T01:22:08.605Z,6.15
2022-11-02T01:23:08.568Z,6.12
2022-11-02T01:24:08.564Z,6.10
2022-11-02T01:25:08.561Z,6.09
2022-11-02T01:26:08.553Z,6.07
2022-11-02T01:27:08.565Z,6.04
2022-11-02T01:28:08.512Z,6.02
2022-11-02T01:29:08.505Z,6.00
2022-11-02T01:30:08.517Z,5.96
2022-11-02T01:31:08.451Z,5.90
2022-11-02T01:32:08.468Z,5.87
2022-11-02T01:33:08.500Z,5.84
2022-11-02T01:34:08.459Z,5.83
2022-11-02T01:35:08.439Z,5.82
2022-11-02T01:36:08.461Z,5.81
2022-11-02T01:37:08.402Z,5.81
2022-11-02T01:38:08.479Z,5.83
2022-11-02T01:39:08.359Z,5.88
2022-11-02T01:40:08.363Z,5.96
2022-11-02T01:41:08.415Z,6.04
2022-11-02T01:42:08.320Z,6.11
2022-11-02T01:43:08.376Z,6.16
2022-11-02T01:44:08.303Z,6.19
2022-11-02T01:45:08.274Z,6.22
2022-11-02T01:46:08.262Z,6.21
2022-11-02T01:47:08.239Z,6.17
2022-11-02T01:48:08.267Z,6.10
2022-11-02T01:49:08.304Z,6.05
2022-11-02T01:50:08.211Z,6.01
2022-11-02T01:51:08.217Z,5.98
2022-11-02T01:52:08.291Z,5.94
2022-11-02T01:53:08.336Z,5.90
2022-11-02T01:54:08.290Z,5.86
2022-11-02T01:55:08.163Z,5.84
2022-11-02T01:56:08.185Z,5.82
2022-11-02T01:57:08.131Z,5.81
2022-11-02T01:58:08.354Z,5.82
2022-11-02T01:59:08.177Z,5.84
2022-11-02T02:00:08.149Z,5.84
2022-11-02T02:01:08.155Z,5.82
2022-11-02T02:02:08.189Z,5.79
2022-11-02T02:03:08.068Z,5.74
2022-11-02T02:04:08.157Z,5.69
2022-11-02T02:05:08.039Z,5.66
2022-11-02T02:06:08.033Z,5.64
2022-11-02T02:07:08.048Z,5.62
2022-11-02T02:08:08.030Z,5.62
2022-11-02T02:09:08.034Z,5.61
2022-11-02T02:10:07.976Z,5.61
2022-11-02T02:11:07.968Z,5.59
2022-11-02T02:12:07.958Z,5.56
2022-11-02T02:13:07.908Z,5.54
2022-11-02T02:14:07.939Z,5.50
2022-11-02T02:15:07.869Z,5.46
2022-11-02T02:16:07.914Z,5.44
2022-11-02T02:17:07.893Z,5.42
2022-11-02T02:18:07.996Z,5.42
2022-11-02T02:19:07.819Z,5.43
2022-11-02T02:20:07.879Z,5.42
2022-11-02T02:21:07.841Z,5.36
2022-11-02T02:22:07.819Z,5.29
2022-11-02T02:23:07.800Z,5.24
2022-11-02T02:24:07.797Z,5.20
2022-11-02T02:25:07.782Z,5.20
2022-11-02T02:26:07.842Z,5.23
2022-11-02T02:27:07.792Z,5.25
2022-11-02T02:28:07.805Z,5.23
2022-11-02T02:29:07.716Z,5.21
2022-11-02T02:30:07.671Z,5.23
2022-11-02T02:31:07.673Z,5.29
2022-11-02T02:32:07.704Z,5.34
2022-11-02T02:33:07.649Z,5.38
2022-11-02T02:34:07.637Z,5.39
2022-11-02T02:35:07.674Z,5.38
2022-11-02T02:36:07.609Z,5.37
2022-11-02T02:37:07.677Z,5.36
2022-11-02T02:38:07.816Z,5.38
2022-11-02T02:39:07.595Z,5.40
2022-11-02T02:40:07.586Z,5.41
2022-11-02T02:41:07.557Z,5.41
2022-11-02T02:42:07.562Z,5.40
2022-11-02T02:43:07.526Z,5.41
2022-11-02T02:44:07.519Z,5.44
2022-11-02T02:45:07.492Z,5.45
2022-11-02T02:46:07.490Z,5.44
2022-11-02T02:47:07.513Z,5.43
2022-11-02T02:48:07.928Z,5.41
2022-11-02T02:49:07.453Z,5.41
2022-11-02T02:50:07.471Z,5.40
2022-11-02T02:51:07.434Z,5.37
2022-11-02T02:52:07.504Z,5.34
2022-11-02T02:53:07.375Z,5.31
2022-11-02T02:54:07.408Z,5.29
2022-11-02T02:55:07.360Z,5.29
2022-11-02T02:56:07.375Z,5.30
2022-11-02T02:57:07.329Z,5.30
2022-11-02T02:58:07.721Z,5.31
2022-11-02T02:59:07.343Z,5.33
2022-11-02T03:00:07.329Z,5.36
2022-11-02T03:01:07.329Z,5.37
2022-11-02T03:02:07.337Z,5.36
2022-11-02T03:03:07.279Z,5.33
2022-11-02T03:04:07.306Z,5.28
2022-11-02T03:05:07.250Z,5.25
2022-11-02T03:06:07.206Z,5.26
2022-11-02T03:07:07.191Z,5.29
2022-11-02T03:08:07.465Z,5.29
2022-11-02T03:09:07.209Z,5.28
2022-11-02T03:10:07.170Z,5.25
2022-11-02T03:11:07.170Z,5.21
2022-11-02T03:12:07.146Z,5.16
2022-11-02T03:13:07.145Z,5.10
2022-11-02T03:14:07.126Z,5.04
2022-11-02T03:15:07.177Z,4.98
2022-11-02T03:16:07.086Z,4.93
2022-11-02T03:17:07.093Z,4.91
2022-11-02T03:18:07.297Z,4.91
2022-11-02T03:19:07.096Z,4.90
2022-11-02T03:20:07.031Z,4.89
2022-11-02T03:21:07.009Z,4.89
2022-11-02T03:22:07.030Z,4.90
2022-11-02T03:23:07.010Z,4.93
2022-11-02T03:24:06.990Z,4.94
2022-11-02T03:25:06.987Z,4.96
2022-11-02T03:26:06.958Z,4.98
2022-11-02T03:27:07.123Z,5.01
2022-11-02T03:28:07.193Z,5.04
2022-11-02T03:29:06.963Z,5.06
2022-11-02T03:30:06.916Z,5.10
2022-11-02T03:31:06.882Z,5.13
2022-11-02T03:32:06.875Z,5.12
2022-11-02T03:33:06.905Z,5.09
2022-11-02T03:34:06.836Z,5.05
2022-11-02T03:35:06.857Z,5.03
2022-11-02T03:36:06.828Z,5.01
2022-11-02T03:37:06.859Z,4.99
2022-11-02T03:38:07.225Z,4.96
2022-11-02T03:39:06.791Z,4.92
2022-11-02T03:40:06.773Z,4.90
2022-11-02T03:41:06.781Z,4.88
2022-11-02T03:42:06.820Z,4.88
2022-11-02T03:43:06.729Z,4.89
2022-11-02T03:44:06.786Z,4.89
2022-11-02T03:45:06.968Z,4.88
2022-11-02T03:46:06.706Z,4.87
2022-11-02T03:47:06.692Z,4.85
2022-11-02T03:48:07.188Z,4.84
2022-11-02T03:49:08.450Z,4.84
2022-11-02T03:50:06.621Z,4.84
2022-11-02T03:51:06.642Z,4.84
2022-11-02T03:52:06.658Z,4.82
2022-11-02T03:53:06.614Z,4.79
2022-11-02T03:54:06.606Z,4.78
2022-11-02T03:55:06.659Z,4.76
2022-11-02T03:56:06.551Z,4.75
2022-11-02T03:57:06.593Z,4.75
2022-11-02T03:58:06.942Z,4.78
2022-11-02T03:59:06.577Z,4.84
2022-11-02T04:00:06.506Z,4.90
2022-11-02T04:01:06.512Z,4.93
2022-11-02T04:02:06.679Z,4.95
2022-11-02T04:03:06.490Z,4.96
2022-11-02T04:04:06.464Z,4.94
2022-11-02T04:05:06.462Z,4.90
2022-11-02T04:06:06.418Z,4.88
2022-11-02T04:07:06.466Z,4.88
2022-11-02T04:08:06.801Z,4.89
2022-11-02T04:09:06.463Z,4.88
2022-11-02T04:10:06.416Z,4.86
2022-11-02T04:11:06.433Z,4.85
2022-11-02T04:12:06.355Z,4.86
2022-11-02T04:13:06.361Z,4.87
2022-11-02T04:14:06.341Z,4.87
2022-11-02T04:15:06.325Z,4.85
2022-11-02T04:16:06.321Z,4.83
2022-11-02T04:17:06.287Z,4.83
2022-11-02T04:18:06.779Z,4.85
2022-11-02T04:19:06.256Z,4.89
2022-11-02T04:20:06.250Z,4.92
2022-11-02T04:21:06.245Z,4.92
2022-11-02T04:22:06.219Z,4.90
2022-11-02T04:23:12.814Z,4.87
2022-11-02T04:24:06.213Z,4.85
2022-11-02T04:25:06.205Z,4.85
2022-11-02T04:26:06.225Z,4.88
2022-11-02T04:27:06.179Z,4.89
2022-11-02T04:28:06.505Z,4.88
2022-11-02T04:29:06.185Z,4.84
2022-11-02T04:30:06.199Z,4.80
2022-11-02T04:31:06.125Z,4.73
2022-11-02T04:32:06.194Z,4.68
2022-11-02T04:33:06.121Z,4.64
2022-11-02T04:34:06.080Z,4.61
2022-11-02T04:35:06.090Z,4.59
2022-11-02T04:36:06.062Z,4.55
2022-11-02T04:37:06.047Z,4.55
2022-11-02T04:38:06.548Z,4.57
2022-11-02T04:39:06.091Z,4.58
2022-11-02T04:40:06.001Z,4.62
2022-11-02T04:41:06.047Z,4.70
2022-11-02T04:42:06.092Z,4.78
2022-11-02T04:43:05.951Z,4.85
2022-11-02T04:44:05.984Z,4.91
2022-11-02T04:45:05.936Z,4.96
2022-11-02T04:46:05.921Z,5.01
2022-11-02T04:47:06.022Z,5.05
2022-11-02T04:48:06.101Z,5.09
2022-11-02T04:49:05.869Z,5.12
2022-11-02T04:50:05.903Z,5.13
2022-11-02T04:51:05.955Z,5.14
2022-11-02T04:52:05.811Z,5.15
2022-11-02T04:53:05.890Z,5.16
2022-11-02T04:54:05.808Z,5.16
2022-11-02T04:55:05.840Z,5.16
2022-11-02T04:56:05.813Z,5.19
2022-11-02T04:57:05.765Z,5.25
2022-11-02T04:58:06.084Z,5.26
2022-11-02T04:59:05.816Z,5.25
2022-11-02T05:00:05.754Z,5.22
2022-11-02T05:01:05.746Z,5.18
2022-11-02T05:02:06.035Z,5.14
2022-11-02T05:03:08.177Z,5.12
2022-11-02T05:04:05.696Z,5.11
2022-11-02T05:05:05.882Z,5.14
2022-11-02T05:06:05.657Z,5.19
2022-11-02T05:07:05.680Z,5.24
2022-11-02T05:08:06.169Z,5.28
2022-11-02T05:09:05.680Z,5.32
2022-11-02T05:10:05.781Z,5.34
2022-11-02T05:11:05.603Z,5.34
2022-11-02T05:12:05.567Z,5.33
2022-11-02T05:13:05.606Z,5.33
2022-11-02T05:14:05.942Z,5.37
2022-11-02T05:15:05.614Z,5.40
2022-11-02T05:16:05.551Z,5.42
2022-11-02T05:17:05.527Z,5.44
2022-11-02T05:18:05.877Z,5.48
2022-11-02T05:19:08.401Z,5.52
2022-11-02T05:20:05.492Z,5.53
2022-11-02T05:21:05.501Z,5.52
2022-11-02T05:22:05.431Z,5.52
2022-11-02T05:23:05.733Z,5.55
2022-11-02T05:24:05.435Z,5.61
2022-11-02T05:25:05.474Z,5.68
2022-11-02T05:26:05.500Z,5.72
2022-11-02T05:27:05.385Z,5.75
2022-11-02T05:28:05.458Z,5.76
2022-11-02T05:29:05.431Z,5.76
2022-11-02T05:30:05.451Z,5.78
2022-11-02T05:31:05.355Z,5.80
2022-11-02T05:32:05.351Z,5.81
2022-11-02T05:33:05.683Z,5.81
2022-11-02T05:34:05.306Z,5.79
2022-11-02T05:35:05.329Z,5.77
2022-11-02T05:36:05.262Z,5.75
2022-11-02T05:37:05.275Z,5.74
2022-11-02T05:38:05.291Z,5.76
2022-11-02T05:39:05.235Z,5.79
2022-11-02T05:40:05.194Z,5.80
2022-11-02T05:41:05.316Z,5.78
2022-11-02T05:42:05.172Z,5.76
2022-11-02T05:43:05.440Z,5.75
2022-11-02T05:44:05.159Z,5.75
2022-11-02T05:45:05.162Z,5.77
2022-11-02T05:46:05.133Z,5.78
2022-11-02T05:47:05.233Z,5.80
2022-11-02T05:48:05.173Z,5.80
2022-11-02T05:49:05.149Z,5.81
2022-11-02T05:50:05.151Z,5.84
2022-11-02T05:51:05.128Z,5.89
2022-11-02T05:52:05.141Z,5.92
2022-11-02T05:53:05.404Z,5.92
2022-11-02T05:54:05.137Z,5.89
2022-11-02T05:55:05.101Z,5.83
2022-11-02T05:56:05.025Z,5.76
2022-11-02T05:57:05.000Z,5.71
2022-11-02T05:58:05.012Z,5.67
2022-11-02T05:59:04.991Z,5.67
2022-11-02T06:00:04.967Z,5.68
2022-11-02T06:01:05.021Z,5.65
2022-11-02T06:02:04.989Z,5.61
2022-11-02T06:03:05.199Z,5.58
2022-11-02T06:04:05.069Z,5.57
2022-11-02T06:05:04.971Z,5.55
2022-11-02T06:06:04.888Z,5.53
2022-11-02T06:07:04.911Z,5.54
2022-11-02T06:08:04.859Z,5.57
2022-11-02T06:09:07.321Z,5.61
2022-11-02T06:10:04.900Z,5.68
2022-11-02T06:11:04.830Z,5.75
2022-11-02T06:12:04.791Z,5.78
2022-11-02T06:13:05.203Z,5.79
2022-11-02T06:14:04.772Z,5.82
2022-11-02T06:15:04.770Z,5.84
2022-11-02T06:16:04.736Z,5.83
2022-11-02T06:17:04.767Z,5.82
2022-11-02T06:18:04.716Z,5.79
2022-11-02T06:19:04.796Z,5.75
2022-11-02T06:20:04.734Z,5.70
2022-11-02T06:21:04.774Z,5.65
2022-11-02T06:22:04.656Z,5.60
2022-11-02T06:23:04.959Z,5.55
2022-11-02T06:24:04.623Z,5.52
2022-11-02T06:25:04.703Z,5.50
2022-11-02T06:26:04.688Z,5.50
2022-11-02T06:27:04.629Z,5.50
2022-11-02T06:28:04.587Z,5.50
2022-11-02T06:29:04.645Z,5.49
2022-11-02T06:30:04.645Z,5.47
2022-11-02T06:31:04.624Z,5.49
2022-11-02T06:32:04.552Z,5.55
2022-11-02T06:33:07.147Z,5.62
2022-11-02T06:34:04.598Z,5.68
2022-11-02T06:35:04.474Z,5.74
2022-11-02T06:36:04.497Z,5.82
2022-11-02T06:37:04.556Z,5.89
2022-11-02T06:38:04.552Z,5.95
2022-11-02T06:39:04.505Z,6.00
2022-11-02T06:40:04.473Z,6.06
2022-11-02T06:41:04.438Z,6.12
2022-11-02T06:42:04.503Z,6.20
2022-11-02T06:43:15.987Z,6.28
2022-11-02T06:44:04.387Z,6.35
2022-11-02T06:45:04.360Z,6.42
2022-11-02T06:46:04.591Z,6.47
2022-11-02T06:47:04.529Z,6.50
2022-11-02T06:48:04.317Z,6.51
2022-11-02T06:49:04.286Z,6.52
2022-11-02T06:50:04.277Z,6.54
2022-11-02T06:51:04.314Z,6.56
2022-11-02T06:52:04.331Z,6.58
2022-11-02T06:53:04.760Z,6.60
2022-11-02T06:54:08.466Z,6.61
2022-11-02T06:55:04.286Z,6.61
2022-11-02T06:56:04.209Z,6.60
2022-11-02T06:57:04.231Z,6.58
2022-11-02T06:58:04.205Z,6.58
2022-11-02T06:59:04.185Z,6.58
2022-11-02T07:00:04.208Z,6.58
2022-11-02T07:01:04.234Z,6.59
2022-11-02T07:02:04.287Z,6.60
2022-11-02T07:03:04.603Z,6.61
2022-11-02T07:04:04.122Z,6.63
2022-11-02T07:05:04.116Z,6.63
2022-11-02T07:06:05.567Z,6.63
2022-11-02T07:07:04.117Z,6.63
2022-11-02T07:08:04.051Z,6.63
2022-11-02T07:09:04.054Z,6.62
2022-11-02T07:10:04.039Z,6.63
2022-11-02T07:11:04.055Z,6.67
2022-11-02T07:12:04.052Z,6.71
2022-11-02T07:13:04.299Z,6.74
2022-11-02T07:14:04.018Z,6.78
2022-11-02T07:15:04.097Z,6.82
2022-11-02T07:16:03.969Z,6.85
2022-11-02T07:17:03.916Z,6.87
2022-11-02T07:18:03.999Z,6.89
2022-11-02T07:19:03.980Z,6.94
2022-11-02T07:20:03.881Z,7.01
2022-11-02T07:21:04.060Z,7.09
2022-11-02T07:22:03.960Z,7.18
2022-11-02T07:23:04.366Z,7.25
2022-11-02T07:24:03.831Z,7.30
2022-11-02T07:25:03.914Z,7.35
2022-11-02T07:26:03.886Z,7.41
2022-11-02T07:27:03.857Z,7.47
2022-11-02T07:28:03.879Z,7.52
2022-11-02T07:29:03.826Z,7.55
2022-11-02T07:30:03.794Z,7.58
2022-11-02T07:31:03.746Z,7.64
2022-11-02T07:32:03.764Z,7.72
2022-11-02T07:33:03.963Z,7.80
2022-11-02T07:34:03.742Z,7.87
2022-11-02T07:35:03.866Z,7.92
2022-11-02T07:36:03.686Z,7.97
2022-11-02T07:37:03.757Z,8.03
2022-11-02T07:38:03.678Z,8.08
2022-11-02T07:39:03.639Z,8.15
2022-11-02T07:40:03.658Z,8.23
2022-11-02T07:41:03.627Z,8.29
2022-11-02T07:42:03.610Z,8.34
2022-11-02T07:43:04.040Z,8.38
2022-11-02T07:44:03.764Z,8.41
2022-11-02T07:45:03.590Z,8.45
2022-11-02T07:46:03.588Z,8.48
2022-11-02T07:47:03.624Z,8.51
2022-11-02T07:48:03.608Z,8.54
2022-11-02T07:49:03.506Z,8.58
2022-11-02T07:50:03.559Z,8.63
2022-11-02T07:51:03.496Z,8.71
2022-11-02T07:52:03.467Z,8.82
2022-11-02T07:53:03.704Z,8.95
2022-11-02T07:54:03.488Z,9.09
2022-11-02T07:55:03.442Z,9.22
2022-11-02T07:56:03.432Z,9.31
2022-11-02T07:57:03.431Z,9.37
2022-11-02T07:58:03.413Z,9.41
2022-11-02T07:59:03.385Z,9.46
2022-11-02T08:00:03.458Z,9.51
2022-11-02T08:01:03.359Z,9.56
2022-11-02T08:02:03.327Z,9.61
2022-11-02T08:03:03.989Z,9.67
2022-11-02T08:04:03.378Z,9.75
2022-11-02T08:05:03.341Z,9.87
2022-11-02T08:06:03.344Z,10.06
2022-11-02T08:07:03.285Z,10.32
2022-11-02T08:08:03.734Z,10.65
2022-11-02T08:09:03.261Z,11.05
2022-11-02T08:10:03.222Z,11.43
2022-11-02T08:11:03.218Z,11.75
2022-11-02T08:12:03.205Z,12.00
2022-11-02T08:13:03.250Z,12.18
2022-11-02T08:14:03.247Z,12.29
2022-11-02T08:15:07.355Z,12.41
2022-11-02T08:16:03.154Z,12.50
2022-11-02T08:17:03.269Z,12.39
2022-11-02T08:18:03.666Z,12.12
2022-11-02T08:19:03.123Z,11.85
2022-11-02T08:20:03.112Z,11.60
2022-11-02T08:21:03.102Z,11.39
2022-11-02T08:22:03.061Z,11.25
2022-11-02T08:23:03.059Z,11.15
2022-11-02T08:24:03.051Z,11.02
2022-11-02T08:25:03.109Z,10.85
2022-11-02T08:26:03.010Z,10.72
2022-11-02T08:27:03.019Z,10.63
2022-11-02T08:28:03.471Z,10.57
2022-11-02T08:29:03.023Z,10.55
2022-11-02T08:30:02.973Z,10.54
2022-11-02T08:31:02.945Z,10.56
2022-11-02T08:32:02.966Z,10.66
2022-11-02T08:33:02.957Z,10.76
2022-11-02T08:34:02.963Z,10.80
2022-11-02T08:35:02.911Z,10.87
2022-11-02T08:36:02.877Z,10.98
2022-11-02T08:37:02.853Z,11.04
2022-11-02T08:38:03.344Z,11.04
2022-11-02T08:39:02.920Z,11.04
2022-11-02T08:40:02.912Z,11.02
2022-11-02T08:41:02.876Z,10.96
2022-11-02T08:42:02.881Z,10.87
2022-11-02T08:43:02.849Z,10.79
2022-11-02T08:44:02.808Z,10.73
2022-11-02T08:45:02.833Z,10.69
2022-11-02T08:46:14.849Z,10.67
2022-11-02T08:47:04.273Z,10.65
2022-11-02T08:48:02.981Z,10.61
2022-11-02T08:49:02.744Z,10.57
2022-11-02T08:50:02.787Z,10.54
2022-11-02T08:51:02.760Z,10.53
2022-11-02T08:52:02.708Z,10.51
2022-11-02T08:53:02.670Z,10.49
2022-11-02T08:54:02.731Z,10.48
2022-11-02T08:55:02.754Z,10.45
2022-11-02T08:56:02.679Z,10.43
2022-11-02T08:57:02.627Z,10.41
2022-11-02T08:58:03.014Z,10.40
2022-11-02T08:59:02.921Z,10.38
2022-11-02T09:00:02.671Z,10.36
2022-11-02T09:01:02.568Z,10.37
2022-11-02T09:02:02.673Z,10.39
2022-11-02T09:03:02.700Z,10.43
2022-11-02T09:04:02.644Z,10.49
2022-11-02T09:05:02.496Z,10.56
2022-11-02T09:06:02.833Z,10.63
2022-11-02T09:07:02.539Z,10.72
2022-11-02T09:08:03.944Z,10.82
2022-11-02T09:09:02.763Z,10.91
2022-11-02T09:10:05.827Z,10.98
2022-11-02T09:11:02.430Z,11.03
2022-11-02T09:12:02.471Z,11.06
2022-11-02T09:13:04.015Z,11.06
2022-11-02T09:14:02.659Z,11.05
2022-11-02T09:15:02.387Z,11.09
2022-11-02T09:16:02.446Z,11.29
2022-11-02T09:17:03.241Z,11.61
2022-11-02T09:18:03.869Z,11.97
2022-11-02T09:19:03.586Z,12.26
2022-11-02T09:20:03.042Z,12.42
2022-11-02T09:21:02.368Z,12.48
2022-11-02T09:22:05.751Z,12.51
2022-11-02T09:23:02.274Z,12.43
2022-11-02T09:24:02.319Z,12.26
2022-11-02T09:25:02.229Z,12.07
2022-11-02T09:26:02.258Z,11.94
2022-11-02T09:27:02.236Z,11.88
2022-11-02T09:28:02.229Z,11.85
2022-11-02T09:29:02.270Z,11.84
2022-11-02T09:30:02.262Z,11.84
2022-11-02T09:31:03.747Z,12.04
2022-11-02T09:32:02.303Z,12.35
2022-11-02T09:33:02.437Z,12.78
2022-11-02T09:34:02.177Z,13.35
2022-11-02T09:35:02.164Z,13.88
2022-11-02T09:36:02.176Z,14.38
2022-11-02T09:37:02.101Z,14.80
2022-11-02T09:38:02.093Z,15.04
2022-11-02T09:39:02.116Z,15.16
2022-11-02T09:40:02.053Z,15.20
2022-11-02T09:41:02.045Z,15.31
2022-11-02T09:42:02.162Z,15.49
2022-11-02T09:43:04.914Z,15.76
2022-11-02T09:44:06.273Z,15.94
2022-11-02T09:45:02.034Z,15.93
2022-11-02T09:46:02.013Z,15.88
2022-11-02T09:47:49.611Z,15.84
2022-11-02T09:48:28.019Z,15.77
2022-11-02T09:49:02.076Z,15.64
2022-11-02T09:50:01.973Z,15.59
2022-11-02T09:51:02.445Z,15.53
2022-11-02T09:52:01.999Z,15.47
2022-11-02T09:53:02.229Z,15.50
2022-11-02T09:54:01.900Z,15.62
2022-11-02T09:55:01.844Z,15.81
2022-11-02T09:56:02.016Z,16.05
2022-11-02T09:57:01.849Z,16.18
2022-11-02T09:58:02.041Z,16.29
2022-11-02T09:59:01.833Z,16.39
2022-11-02T10:00:01.913Z,16.55
2022-11-02T10:01:02.095Z,16.65
2022-11-02T10:02:01.777Z,16.70
2022-11-02T10:03:01.841Z,16.72
2022-11-02T10:04:01.751Z,16.62
2022-11-02T10:05:01.891Z,16.47
2022-11-02T10:06:01.821Z,16.40
2022-11-02T10:07:01.724Z,16.35
2022-11-02T10:08:02.344Z,16.34
2022-11-02T10:09:01.743Z,16.33
2022-11-02T10:10:01.650Z,16.27
2022-11-02T10:11:06.927Z,16.29
2022-11-02T10:12:02.398Z,16.39
2022-11-02T10:13:01.816Z,16.46
2022-11-02T10:14:01.630Z,16.50
2022-11-02T10:15:01.703Z,16.54
2022-11-02T10:16:01.716Z,16.59
2022-11-02T10:17:01.684Z,16.73
2022-11-02T10:18:01.695Z,16.73
2022-11-02T10:19:01.852Z,16.62
2022-11-02T10:20:01.697Z,16.63
2022-11-02T10:21:01.656Z,16.76
2022-11-02T10:22:01.678Z,16.79
2022-11-02T10:23:01.844Z,16.74
2022-11-02T10:24:01.727Z,16.58
2022-11-02T10:25:01.845Z,16.41
2022-11-02T10:26:01.587Z,16.36
2022-11-02T10:27:01.626Z,16.37
2022-11-02T10:28:01.543Z,16.23
2022-11-02T10:29:01.533Z,16.05
2022-11-02T10:30:01.519Z,15.96
2022-11-02T10:31:01.639Z,15.95
2022-11-02T10:32:01.475Z,15.94
2022-11-02T10:33:01.865Z,15.90
2022-11-02T10:34:01.385Z,15.93
2022-11-02T10:35:17.596Z,16.07
2022-11-02T10:36:17.324Z,16.30
2022-11-02T10:37:01.471Z,16.42
2022-11-02T10:38:01.637Z,16.37
2022-11-02T10:39:01.363Z,16.33
2022-11-02T10:40:01.384Z,16.36
2022-11-02T10:41:01.384Z,16.35
2022-11-02T10:42:01.420Z,16.29
2022-11-02T10:43:01.429Z,16.19
2022-11-02T10:44:01.459Z,16.10
2022-11-02T10:45:01.263Z,16.13
2022-11-02T10:46:01.526Z,16.17
2022-11-02T10:47:01.573Z,16.16
2022-11-02T10:48:01.935Z,16.10
2022-11-02T10:49:01.348Z,16.01
2022-11-02T10:50:01.310Z,16.00
2022-11-02T10:51:01.358Z,16.03
2022-11-02T10:52:01.495Z,16.05
2022-11-02T10:53:20.211Z,16.12
2022-11-02T10:54:01.355Z,16.14
2022-11-02T10:55:01.190Z,16.03
2022-11-02T10:56:01.141Z,15.85
2022-11-02T10:57:01.253Z,15.73
2022-11-02T10:58:01.518Z,15.69
2022-11-02T10:59:01.215Z,15.67
2022-11-02T11:00:01.121Z,15.78
2022-11-02T11:01:01.088Z,16.01
2022-11-02T11:02:01.402Z,16.20
2022-11-02T11:03:01.091Z,16.27
2022-11-02T11:04:01.198Z,16.28
2022-11-02T11:05:00.934Z,16.19
2022-11-02T11:06:00.971Z,16.03
2022-11-02T11:07:01.032Z,15.85
2022-11-02T11:08:00.919Z,15.68
2022-11-02T11:09:00.901Z,15.64
2022-11-02T11:10:00.867Z,15.69
2022-11-02T11:11:01.017Z,15.86
2022-11-02T11:12:01.027Z,16.10
2022-11-02T11:13:00.949Z,16.26
2022-11-02T11:16:00.964Z,16.39
2022-11-02T11:20:04.260Z,16.66
2022-11-02T11:21:00.916Z,16.76
2022-11-02T11:22:01.375Z,16.84
2022-11-02T11:23:00.732Z,16.93
2022-11-02T11:24:00.861Z,17.02
2022-11-02T11:25:00.936Z,17.09
2022-11-02T11:26:00.782Z,16.91
2022-11-02T11:27:00.841Z,16.70
2022-11-02T11:28:00.739Z,16.68
2022-11-02T11:29:00.896Z,16.75
2022-11-02T11:30:00.877Z,16.73
2022-11-02T11:31:00.814Z,16.68
2022-11-02T11:32:00.675Z,16.61
2022-11-02T11:33:00.733Z,16.34
2022-11-02T11:34:01.000Z,16.03
2022-11-02T11:35:00.597Z,15.73
2022-11-02T11:36:02.652Z,15.44
2022-11-02T11:37:00.700Z,15.22
2022-11-02T11:38:00.727Z,15.06
2022-11-02T11:39:00.655Z,14.89
2022-11-02T11:40:00.494Z,14.71
2022-11-02T11:41:00.632Z,14.56
2022-11-02T11:42:00.680Z,14.45
2022-11-02T11:43:02.465Z,14.37
2022-11-02T11:44:00.477Z,14.42
2022-11-02T11:45:00.425Z,14.49
2022-11-02T11:46:05.183Z,14.49
2022-11-02T11:47:00.408Z,14.48
2022-11-02T11:48:00.344Z,14.47
2022-11-02T11:49:00.435Z,14.46
2022-11-02T11:50:10.415Z,14.47
2022-11-02T11:51:00.338Z,14.50
2022-11-02T11:52:00.404Z,14.50
2022-11-02T11:53:00.418Z,14.51
2022-11-02T11:54:00.356Z,14.49
2022-11-02T11:55:00.634Z,14.44
2022-11-02T11:56:00.378Z,14.42
2022-11-02T11:57:00.374Z,14.41
2022-11-02T11:58:00.344Z,14.39
2022-11-02T11:59:00.592Z,14.38
2022-11-02T12:00:00.319Z,14.38
2022-11-02T12:01:00.610Z,14.37
2022-11-02T12:02:00.432Z,14.35
2022-11-02T12:03:00.352Z,14.34
2022-11-02T12:04:00.340Z,14.33
2022-11-02T12:05:00.272Z,14.30
2022-11-02T12:06:00.386Z,14.26
2022-11-02T12:07:00.117Z,14.22
2022-11-02T12:08:00.111Z,14.19
2022-11-02T12:09:04.082Z,14.18
2022-11-02T12:10:00.110Z,14.18
2022-11-02T12:11:00.163Z,14.17
2022-11-02T12:12:00.158Z,14.16
2022-11-02T12:13:00.177Z,14.15
2022-11-02T12:14:00.145Z,14.16
2022-11-02T12:15:05.507Z,14.15
2022-11-02T12:15:59.995Z,14.13
2022-11-02T12:17:00.022Z,14.10
2022-11-02T12:17:59.969Z,14.08
2022-11-02T12:20:00.037Z,14.06
2022-11-02T12:20:59.923Z,14.04
2022-11-02T12:21:59.977Z,14.02
2022-11-02T12:22:59.902Z,14.00
2022-11-02T12:23:59.934Z,13.99
2022-11-02T12:24:59.861Z,13.98
2022-11-02T12:26:03.269Z,13.95
2022-11-02T12:26:59.892Z,13.93
2022-11-02T12:27:59.873Z,13.92
2022-11-02T12:29:00.151Z,13.92
2022-11-02T12:29:59.837Z,13.91
2022-11-02T12:30:59.914Z,13.91
2022-11-02T12:32:01.074Z,13.91
2022-11-02T12:32:59.751Z,13.92
2022-11-02T12:33:59.798Z,13.91
2022-11-02T12:35:27.270Z,13.91
2022-11-02T12:35:59.792Z,13.89
2022-11-02T12:37:59.714Z,13.83
2022-11-02T12:38:59.905Z,13.81
2022-11-02T12:39:59.738Z,13.79
2022-11-02T12:40:59.706Z,13.78
2022-11-02T12:41:59.709Z,13.77
2022-11-02T12:42:59.656Z,13.77
2022-11-02T12:43:59.763Z,13.78
2022-11-02T12:44:59.698Z,13.77
2022-11-02T12:45:59.978Z,13.76
2022-11-02T12:46:59.576Z,13.75
2022-11-02T12:47:59.675Z,13.75
2022-11-02T12:48:59.585Z,13.76
2022-11-02T12:49:59.604Z,13.76
2022-11-02T12:50:59.544Z,13.77
2022-11-02T12:51:59.578Z,13.77
2022-11-02T12:52:59.576Z,13.77
2022-11-02T12:53:59.599Z,13.75
2022-11-02T12:54:59.546Z,13.74
2022-11-02T12:55:59.524Z,13.74
2022-11-02T12:56:59.515Z,13.74
2022-11-02T12:57:59.565Z,13.75
2022-11-02T12:58:59.466Z,13.74
2022-11-02T12:59:59.477Z,13.73
2022-11-02T13:00:59.457Z,13.73
2022-11-02T13:01:59.736Z,13.73
2022-11-02T13:02:59.445Z,13.73
2022-11-02T13:03:59.348Z,13.75
2022-11-02T13:04:59.330Z,13.77
2022-11-02T13:06:00.462Z,13.77
2022-11-02T13:06:59.497Z,13.77
2022-11-02T13:07:59.343Z,13.76
2022-11-02T13:08:59.311Z,13.92
2022-11-02T13:09:59.339Z,14.10
2022-11-02T13:10:59.474Z,14.42
2022-11-02T13:11:59.476Z,14.98
2022-11-02T13:12:59.256Z,15.58
2022-11-02T13:13:59.235Z,15.90
2022-11-02T13:14:59.250Z,15.86